Strona główna
METAR-TAF:

METAR-TAF

Lotnisko :

Karaczi, Pakistan

Port lotniczy Dźinnaha w Karaczi

Szerokość geograficzna: 24-54N, Długość geograficzna: 067-08E, wysokość: 21 m

Aktualna obserwacja pogody

Raport powstał 38 minut temu, godzina 17:25 UTC
Cisza
Temperatura 18°C
Wilgotność 83%
Ciśnienie 1015 hPa
Widzialność: 6000 m

METAR: OPKC 171725Z 00000KT 6000 NSC 18/15 Q1015 NOSIG

czas: 23:03 (18:03 UTC)

Prognoza

Raport powstał 2 godziny i 33 minut temu, godzina 15:30 UTC
Prognoza ważna od 17 godzina 18 UTC do 18 godzina 24 UTC
Widzialność: 4000 m
zmętnienie
Przejściowo
od 18 godzina 00 UTC do 18 godzina 04 UTC
Wiatr 3 kt z kierunków zmiennych
Widzialność: 2500 m
dym
Od 18 godzina 0500 UTC
Wiatr 8 kt od północny wschód
Widzialność: 6000 m
Stopniowe zmiany
od 18 godzina 18 UTC do 18 godzina 20 UTC
Wiatr 3 kt z kierunków zmiennych
Widzialność: 3000 m
dym

TAF: OPKC 171530Z 1718/1824 0505KT 4000 HZ NSC TEMPO 1800/1804 VRB03KT 2500 FU NSC FM180500 05008KT 6000 NSC BECMG 1818/1820 VRB03KT 3000 FU NSC

Obserwacja i prognoza pogody dla ponad 4000 lotnisk (raport METAR i TAF).

Dostępne stacje oznaczono żółtymi i czerwonymi punktami na mapie.

Najedź kursorem aby zobaczyć nazwę stacji.

Kliknij aby zobaczyć obserwacje i prognozy pogody.

Aby zmienić mapę: kliknij na zielony przycisk z czarnym krzyżykiem, aby powiększyć; na zielony przycisk z myślnikiem, aby pomniejszyć; na zielone strzałki, aby przejść do map sąsiednich.


METAR-TAF: